Cherry Grove, South Carolina
Current Conditions -  °F | °C
As of 1:53 AM on Monday 22 Dec 2014 (Local Time) from KCRE Reporting Station
Overcast Overcast  
Wind Chill: 44°   Ceiling: 500
Heat Index: 46°   Visibility: 8mi
Dew Point: 44°   Wind: 5mph
Humidity: 93%   Direction: 20°NNE
Pressure: 30.08"   Gusts: NA
Location:  33.8371°N, 78.6471°W
Report Text: KCRE 220653Z AUTO 02004KT 8SM OVC005 08/07 A3008 RMK AO1 RAE36 SLP185 P0002 T00780067
Loading
Personal Weather Stations






























Interactive Weather Map New forecast layout! Learn more

10-Day Weather Forecast

Advertisements
Track Severe Weather on mobile